sensor_id;sensor_type;location;lat;lon;timestamp;pressure;altitude;pressure_sealevel;temperature;humidity
33163;BME280;29282;45.656;11.302;2023-04-22T00:00:11;98239.03;;;18.57;49.95
33163;BME280;29282;45.656;11.302;2023-04-22T00:02:37;98237.44;;;18.55;49.83
33163;BME280;29282;45.656;11.302;2023-04-22T00:05:05;98231.16;;;18.55;49.88
33163;BME280;29282;45.656;11.302;2023-04-22T00:07:31;98242.13;;;18.55;49.80
33163;BME280;29282;45.656;11.302;2023-04-22T00:09:56;98235.84;;;18.54;49.95
33163;BME280;29282;45.656;11.302;2023-04-22T00:12:22;98243.22;;;18.54;49.79
33163;BME280;29282;45.656;11.302;2023-04-22T00:14:47;98238.91;;;18.53;49.91
33163;BME280;29282;45.656;11.302;2023-04-22T00:17:13;98232.59;;;18.52;49.88
33163;BME280;29282;45.656;11.302;2023-04-22T00:19:40;98230.66;;;18.53;49.83
33163;BME280;29282;45.656;11.302;2023-04-22T00:22:05;98234.56;;;18.52;49.81
33163;BME280;29282;45.656;11.302;2023-04-22T00:24:31;98229.88;;;18.52;49.85
33163;BME280;29282;45.656;11.302;2023-04-22T00:26:57;98229.88;;;18.52;49.89
33163;BME280;29282;45.656;11.302;2023-04-22T00:29:24;98226.66;;;18.50;49.88
33163;BME280;29282;45.656;11.302;2023-04-22T00:31:49;98229.38;;;18.50;49.91
33163;BME280;29282;45.656;11.302;2023-04-22T00:34:15;98229.75;;;18.49;49.87
33163;BME280;29282;45.656;11.302;2023-04-22T00:36:42;98227.78;;;18.49;49.79
33163;BME280;29282;45.656;11.302;2023-04-22T00:39:08;98224.25;;;18.49;49.82
33163;BME280;29282;45.656;11.302;2023-04-22T00:41:34;98217.97;;;18.48;49.84
33163;BME280;29282;45.656;11.302;2023-04-22T00:44:00;98222.66;;;18.48;49.87
33163;BME280;29282;45.656;11.302;2023-04-22T00:46:25;98226.53;;;18.47;49.76
33163;BME280;29282;45.656;11.302;2023-04-22T00:48:51;98228.16;;;18.48;49.80
33163;BME280;29282;45.656;11.302;2023-04-22T00:51:17;98229.25;;;18.47;49.79
33163;BME280;29282;45.656;11.302;2023-04-22T00:53:43;98224.13;;;18.45;49.88
33163;BME280;29282;45.656;11.302;2023-04-22T00:56:10;98227.66;;;18.46;49.81
33163;BME280;29282;45.656;11.302;2023-04-22T00:58:36;98231.22;;;18.46;49.80
33163;BME280;29282;45.656;11.302;2023-04-22T01:01:01;98226.88;;;18.45;49.84
33163;BME280;29282;45.656;11.302;2023-04-22T01:03:27;98235.91;;;18.46;49.82
33163;BME280;29282;45.656;11.302;2023-04-22T01:05:55;98235.41;;;18.44;49.78
33163;BME280;29282;45.656;11.302;2023-04-22T01:08:20;98230.75;;;18.44;49.66
33163;BME280;29282;45.656;11.302;2023-04-22T01:10:46;98231.56;;;18.45;49.82
33163;BME280;29282;45.656;11.302;2023-04-22T01:13:11;98230.75;;;18.44;49.73
33163;BME280;29282;45.656;11.302;2023-04-22T01:15:37;98229.94;;;18.44;49.81
33163;BME280;29282;45.656;11.302;2023-04-22T01:18:03;98233.50;;;18.44;49.73
33163;BME280;29282;45.656;11.302;2023-04-22T01:20:29;98232.69;;;18.44;49.66
33163;BME280;29282;45.656;11.302;2023-04-22T01:22:55;98235.41;;;18.44;49.62
33163;BME280;29282;45.656;11.302;2023-04-22T01:25:25;98230.28;;;18.42;49.77
33163;BME280;29282;45.656;11.302;2023-04-22T01:27:52;98233.81;;;18.43;49.62
33163;BME280;29282;45.656;11.302;2023-04-22T01:30:18;98234.63;;;18.43;49.63
33163;BME280;29282;45.656;11.302;2023-04-22T01:32:43;98226.75;;;18.42;49.72
33163;BME280;29282;45.656;11.302;2023-04-22T01:35:10;98225.13;;;18.41;49.71
33163;BME280;29282;45.656;11.302;2023-04-22T01:37:36;98231.75;;;18.40;49.67
33163;BME280;29282;45.656;11.302;2023-04-22T01:40:02;98226.25;;;18.40;49.87
33163;BME280;29282;45.656;11.302;2023-04-22T01:42:32;98232.53;;;18.40;49.67
33163;BME280;29282;45.656;11.302;2023-04-22T01:44:57;98229.00;;;18.40;49.69
33163;BME280;29282;45.656;11.302;2023-04-22T01:47:23;98227.06;;;18.40;49.54
33163;BME280;29282;45.656;11.302;2023-04-22T01:49:48;98232.91;;;18.39;49.65
33163;BME280;29282;45.656;11.302;2023-04-22T01:52:14;98234.50;;;18.40;49.63
33163;BME280;29282;45.656;11.302;2023-04-22T01:54:40;98227.72;;;18.37;49.71
33163;BME280;29282;45.656;11.302;2023-04-22T01:57:08;98234.03;;;18.38;49.69
33163;BME280;29282;45.656;11.302;2023-04-22T01:59:40;98227.72;;;18.37;49.60
33163;BME280;29282;45.656;11.302;2023-04-22T02:02:06;98224.97;;;18.37;49.69
33163;BME280;29282;45.656;11.302;2023-04-22T02:04:32;98222.59;;;18.36;49.61
33163;BME280;29282;45.656;11.302;2023-04-22T02:06:57;98224.19;;;18.37;49.59
33163;BME280;29282;45.656;11.302;2023-04-22T02:09:23;98221.44;;;18.37;49.77
33163;BME280;29282;45.656;11.302;2023-04-22T02:11:48;98221.78;;;18.35;49.74
33163;BME280;29282;45.656;11.302;2023-04-22T02:14:14;98219.84;;;18.36;49.62
33163;BME280;29282;45.656;11.302;2023-04-22T02:16:40;98219.06;;;18.35;49.47
33163;BME280;29282;45.656;11.302;2023-04-22T02:19:05;98219.06;;;18.35;49.52
33163;BME280;29282;45.656;11.302;2023-04-22T02:21:31;98222.13;;;18.34;49.70
33163;BME280;29282;45.656;11.302;2023-04-22T02:23:57;98217.41;;;18.34;49.68
33163;BME280;29282;45.656;11.302;2023-04-22T02:26:23;98220.16;;;18.34;49.50
33163;BME280;29282;45.656;11.302;2023-04-22T02:28:50;98216.63;;;18.34;49.56
33163;BME280;29282;45.656;11.302;2023-04-22T02:31:16;98219.06;;;18.35;49.52
33163;BME280;29282;45.656;11.302;2023-04-22T02:33:42;98220.66;;;18.36;49.54
33163;BME280;29282;45.656;11.302;2023-04-22T02:36:07;98220.66;;;18.36;49.63
33163;BME280;29282;45.656;11.302;2023-04-22T02:38:33;98218.69;;;18.37;49.43
33163;BME280;29282;45.656;11.302;2023-04-22T02:40:58;98222.25;;;18.37;49.42
33163;BME280;29282;45.656;11.302;2023-04-22T02:43:24;98223.06;;;18.38;49.35
33163;BME280;29282;45.656;11.302;2023-04-22T02:45:49;98224.97;;;18.37;49.32
33163;BME280;29282;45.656;11.302;2023-04-22T02:48:15;98224.31;;;18.40;49.35
33163;BME280;29282;45.656;11.302;2023-04-22T02:50:40;98217.22;;;18.39;49.28
33163;BME280;29282;45.656;11.302;2023-04-22T02:53:07;98216.09;;;18.40;49.36
33163;BME280;29282;45.656;11.302;2023-04-22T02:55:32;98209.00;;;18.39;49.20
33163;BME280;29282;45.656;11.302;2023-04-22T02:57:58;98212.22;;;18.41;49.22
33163;BME280;29282;45.656;11.302;2023-04-22T03:00:24;98213.03;;;18.42;49.14
33163;BME280;29282;45.656;11.302;2023-04-22T03:02:49;98213.81;;;18.42;49.14
33163;BME280;29282;45.656;11.302;2023-04-22T03:05:15;98215.41;;;18.43;49.23
33163;BME280;29282;45.656;11.302;2023-04-22T03:07:40;98213.03;;;18.42;49.23
33163;BME280;29282;45.656;11.302;2023-04-22T03:10:06;98210.72;;;18.44;49.18
33163;BME280;29282;45.656;11.302;2023-04-22T03:12:32;98212.69;;;18.43;48.96
33163;BME280;29282;45.656;11.302;2023-04-22T03:14:57;98213.81;;;18.42;49.11
33163;BME280;29282;45.656;11.302;2023-04-22T03:17:23;98204.44;;;18.43;49.19
33163;BME280;29282;45.656;11.302;2023-04-22T03:19:50;98198.50;;;18.41;49.16
33163;BME280;29282;45.656;11.302;2023-04-22T03:22:15;98199.31;;;18.42;49.11
33163;BME280;29282;45.656;11.302;2023-04-22T03:24:41;98202.06;;;18.42;49.15
33163;BME280;29282;45.656;11.302;2023-04-22T03:27:06;98202.06;;;18.42;49.06
33163;BME280;29282;45.656;11.302;2023-04-22T03:29:32;98205.91;;;18.41;49.13
33163;BME280;29282;45.656;11.302;2023-04-22T03:31:57;98200.44;;;18.41;49.13
33163;BME280;29282;45.656;11.302;2023-04-22T03:34:23;98204.00;;;18.41;49.03
33163;BME280;29282;45.656;11.302;2023-04-22T03:36:48;98200.44;;;18.41;49.06
33163;BME280;29282;45.656;11.302;2023-04-22T03:39:13;98205.47;;;18.39;49.13
33163;BME280;29282;45.656;11.302;2023-04-22T03:41:39;98205.13;;;18.40;49.03
33163;BME280;29282;45.656;11.302;2023-04-22T03:44:05;98198.81;;;18.40;49.26
33163;BME280;29282;45.656;11.302;2023-04-22T03:46:30;98197.22;;;18.39;49.24
33163;BME280;29282;45.656;11.302;2023-04-22T03:48:55;98194.50;;;18.39;49.04
33163;BME280;29282;45.656;11.302;2023-04-22T03:51:21;98191.75;;;18.39;48.96
33163;BME280;29282;45.656;11.302;2023-04-22T03:53:46;98193.69;;;18.38;49.09
33163;BME280;29282;45.656;11.302;2023-04-22T03:56:12;98198.38;;;18.38;49.08
33163;BME280;29282;45.656;11.302;2023-04-22T03:58:37;98197.56;;;18.37;49.10
33163;BME280;29282;45.656;11.302;2023-04-22T04:01:03;98194.00;;;18.37;49.09
33163;BME280;29282;45.656;11.302;2023-04-22T04:03:28;98196.75;;;18.37;49.17
33163;BME280;29282;45.656;11.302;2023-04-22T04:05:54;98195.97;;;18.36;49.16
33163;BME280;29282;45.656;11.302;2023-04-22T04:08:19;98195.16;;;18.36;49.18
33163;BME280;29282;45.656;11.302;2023-04-22T04:10:45;98198.69;;;18.36;49.00
33163;BME280;29282;45.656;11.302;2023-04-22T04:13:10;98191.28;;;18.37;49.18
33163;BME280;29282;45.656;11.302;2023-04-22T04:15:36;98191.63;;;18.35;49.13
33163;BME280;29282;45.656;11.302;2023-04-22T04:18:01;98195.16;;;18.36;49.20
33163;BME280;29282;45.656;11.302;2023-04-22T04:20:28;98186.13;;;18.35;49.22
33163;BME280;29282;45.656;11.302;2023-04-22T04:22:53;98188.09;;;18.35;49.19
33163;BME280;29282;45.656;11.302;2023-04-22T04:25:19;98183.72;;;18.34;49.09
33163;BME280;29282;45.656;11.302;2023-04-22T04:27:45;98186.47;;;18.34;49.21
33163;BME280;29282;45.656;11.302;2023-04-22T04:30:12;98186.47;;;18.34;48.96
33163;BME280;29282;45.656;11.302;2023-04-22T04:32:38;98185.66;;;18.33;49.18
33163;BME280;29282;45.656;11.302;2023-04-22T04:35:04;98190.00;;;18.34;49.21
33163;BME280;29282;45.656;11.302;2023-04-22T04:37:30;98186.81;;;18.32;49.14
33163;BME280;29282;45.656;11.302;2023-04-22T04:39:55;98187.59;;;18.33;49.22
33163;BME280;29282;45.656;11.302;2023-04-22T04:42:23;98187.94;;;18.31;49.26
33163;BME280;29282;45.656;11.302;2023-04-22T04:44:50;98186.81;;;18.32;49.09
33163;BME280;29282;45.656;11.302;2023-04-22T04:47:16;98182.13;;;18.33;49.30
33163;BME280;29282;45.656;11.302;2023-04-22T04:49:41;98185.22;;;18.31;49.23
33163;BME280;29282;45.656;11.302;2023-04-22T04:52:08;98184.84;;;18.33;49.11
33163;BME280;29282;45.656;11.302;2023-04-22T04:54:36;98188.75;;;18.31;48.96
33163;BME280;29282;45.656;11.302;2023-04-22T04:57:01;98190.69;;;18.31;49.07
33163;BME280;29282;45.656;11.302;2023-04-22T04:59:27;98196.19;;;18.31;49.16
33163;BME280;29282;45.656;11.302;2023-04-22T05:01:53;98191.50;;;18.31;49.20
33163;BME280;29282;45.656;11.302;2023-04-22T05:04:18;98196.97;;;18.31;49.10
33163;BME280;29282;45.656;11.302;2023-04-22T05:06:44;98201.66;;;18.31;49.18
33163;BME280;29282;45.656;11.302;2023-04-22T05:09:10;98194.25;;;18.31;49.15
33163;BME280;29282;45.656;11.302;2023-04-22T05:11:35;98207.16;;;18.31;49.37
33163;BME280;29282;45.656;11.302;2023-04-22T05:14:01;98209.53;;;18.33;49.29
33163;BME280;29282;45.656;11.302;2023-04-22T05:16:27;98202.47;;;18.31;49.44
33163;BME280;29282;45.656;11.302;2023-04-22T05:18:53;98205.22;;;18.31;49.53
33163;BME280;29282;45.656;11.302;2023-04-22T05:21:18;98205.22;;;18.31;49.28
33163;BME280;29282;45.656;11.302;2023-04-22T05:23:44;98206.00;;;18.32;49.42
33163;BME280;29282;45.656;11.302;2023-04-22T05:26:10;98206.00;;;18.32;49.45
33163;BME280;29282;45.656;11.302;2023-04-22T05:28:36;98207.94;;;18.31;49.29
33163;BME280;29282;45.656;11.302;2023-04-22T05:31:01;98207.94;;;18.31;49.39
33163;BME280;29282;45.656;11.302;2023-04-22T05:33:27;98208.41;;;18.34;49.35
33163;BME280;29282;45.656;11.302;2023-04-22T05:35:53;98209.53;;;18.33;49.29
33163;BME280;29282;45.656;11.302;2023-04-22T05:38:18;98212.75;;;18.35;49.35
33163;BME280;29282;45.656;11.302;2023-04-22T05:40:43;98217.09;;;18.36;49.35
33163;BME280;29282;45.656;11.302;2023-04-22T05:43:09;98216.31;;;18.35;49.29
33163;BME280;29282;45.656;11.302;2023-04-22T05:45:34;98217.09;;;18.36;49.22
33163;BME280;29282;45.656;11.302;2023-04-22T05:48:00;98219.84;;;18.36;49.11
33163;BME280;29282;45.656;11.302;2023-04-22T05:50:26;98221.13;;;18.38;49.13
33163;BME280;29282;45.656;11.302;2023-04-22T05:52:51;98218.84;;;18.40;49.13
33163;BME280;29282;45.656;11.302;2023-04-22T05:55:17;98213.47;;;18.44;49.08
33163;BME280;29282;45.656;11.302;2023-04-22T05:57:43;98217.84;;;18.45;48.96
33163;BME280;29282;45.656;11.302;2023-04-22T06:00:09;98215.53;;;18.47;48.97
33163;BME280;29282;45.656;11.302;2023-04-22T06:02:35;98223.44;;;18.48;48.77
33163;BME280;29282;45.656;11.302;2023-04-22T06:05:00;98227.13;;;18.52;48.90
33163;BME280;29282;45.656;11.302;2023-04-22T06:07:27;98229.06;;;18.52;48.99
33163;BME280;29282;45.656;11.302;2023-04-22T06:09:53;98228.72;;;18.53;48.85
33163;BME280;29282;45.656;11.302;2023-04-22T06:12:19;98230.34;;;18.54;48.98
33163;BME280;29282;45.656;11.302;2023-04-22T06:14:45;98226.31;;;18.52;48.95
33163;BME280;29282;45.656;11.302;2023-04-22T06:17:10;98231.81;;;18.52;48.91
33163;BME280;29282;45.656;11.302;2023-04-22T06:19:36;98230.22;;;18.51;48.88
33163;BME280;29282;45.656;11.302;2023-04-22T06:22:01;98237.63;;;18.50;48.94
33163;BME280;29282;45.656;11.302;2023-04-22T06:24:27;98236.03;;;18.49;48.78
33163;BME280;29282;45.656;11.302;2023-04-22T06:26:53;98237.16;;;18.48;48.80
33163;BME280;29282;45.656;11.302;2023-04-22T06:29:19;98234.75;;;18.47;48.76
33163;BME280;29282;45.656;11.302;2023-04-22T06:31:45;98239.13;;;18.48;48.94
33163;BME280;29282;45.656;11.302;2023-04-22T06:34:10;98239.56;;;18.50;48.91
33163;BME280;29282;45.656;11.302;2023-04-22T06:36:36;98241.19;;;18.51;48.83
33163;BME280;29282;45.656;11.302;2023-04-22T06:39:03;98241.63;;;18.53;48.85
33163;BME280;29282;45.656;11.302;2023-04-22T06:41:30;98237.75;;;18.54;48.65
33163;BME280;29282;45.656;11.302;2023-04-22T06:43:56;98240.78;;;18.61;48.50
33163;BME280;29282;45.656;11.302;2023-04-22T06:46:22;98244.88;;;18.67;48.42
33163;BME280;29282;45.656;11.302;2023-04-22T06:48:47;98253.59;;;18.69;48.37
33163;BME280;29282;45.656;11.302;2023-04-22T06:51:13;98258.69;;;18.80;48.19
33163;BME280;29282;45.656;11.302;2023-04-22T06:53:38;98247.53;;;18.85;47.99
33163;BME280;29282;45.656;11.302;2023-04-22T06:56:05;98245.81;;;18.92;47.91
33163;BME280;29282;45.656;11.302;2023-04-22T06:58:31;98250.75;;;18.99;47.85
33163;BME280;29282;45.656;11.302;2023-04-22T07:00:56;98250.56;;;19.04;47.82
33163;BME280;29282;45.656;11.302;2023-04-22T07:03:22;98250.25;;;19.18;47.79
33163;BME280;29282;45.656;11.302;2023-04-22T07:05:47;98255.28;;;19.28;47.69
33163;BME280;29282;45.656;11.302;2023-04-22T07:08:13;98252.13;;;19.51;47.24
33163;BME280;29282;45.656;11.302;2023-04-22T07:10:39;98257.50;;;19.59;47.23
33163;BME280;29282;45.656;11.302;2023-04-22T07:13:04;98253.88;;;19.67;46.91
33163;BME280;29282;45.656;11.302;2023-04-22T07:15:30;98266.69;;;19.63;47.22
33163;BME280;29282;45.656;11.302;2023-04-22T07:17:55;98260.16;;;19.68;47.22
33163;BME280;29282;45.656;11.302;2023-04-22T07:20:21;98257.97;;;19.61;47.29
33163;BME280;29282;45.656;11.302;2023-04-22T07:22:46;98249.84;;;19.65;47.50
33163;BME280;29282;45.656;11.302;2023-04-22T07:25:12;98250.66;;;19.78;47.26
33163;BME280;29282;45.656;11.302;2023-04-22T07:27:37;98249.03;;;19.77;47.28
33163;BME280;29282;45.656;11.302;2023-04-22T07:30:05;98256.50;;;19.76;47.16
33163;BME280;29282;45.656;11.302;2023-04-22T07:32:31;98257.75;;;19.79;47.32
33163;BME280;29282;45.656;11.302;2023-04-22T07:34:57;98254.22;;;19.78;47.39
33163;BME280;29282;45.656;11.302;2023-04-22T07:37:22;98253.84;;;19.80;47.46
33163;BME280;29282;45.656;11.302;2023-04-22T07:39:48;98242.06;;;19.79;47.35
33163;BME280;29282;45.656;11.302;2023-04-22T07:42:13;98246.28;;;19.77;47.50
33163;BME280;29282;45.656;11.302;2023-04-22T07:44:39;98245.59;;;19.80;47.37
33163;BME280;29282;45.656;11.302;2023-04-22T07:47:04;98246.75;;;19.79;47.46
33163;BME280;29282;45.656;11.302;2023-04-22T07:49:31;98249.97;;;19.81;47.59
33163;BME280;29282;45.656;11.302;2023-04-22T07:51:57;98242.84;;;19.80;47.53
33163;BME280;29282;45.656;11.302;2023-04-22T07:54:22;98243.22;;;19.78;47.54
33163;BME280;29282;45.656;11.302;2023-04-22T07:56:48;98250.41;;;19.83;47.52
33163;BME280;29282;45.656;11.302;2023-04-22T07:59:13;98246.06;;;19.82;47.55
33163;BME280;29282;45.656;11.302;2023-04-22T08:01:39;98247.56;;;19.79;47.82
33163;BME280;29282;45.656;11.302;2023-04-22T08:04:04;98252.25;;;19.79;47.82
33163;BME280;29282;45.656;11.302;2023-04-22T08:06:30;98246.28;;;19.77;47.81
33163;BME280;29282;45.656;11.302;2023-04-22T08:08:56;98241.94;;;19.76;47.69
33163;BME280;29282;45.656;11.302;2023-04-22T08:11:21;98243.78;;;19.71;47.98
33163;BME280;29282;45.656;11.302;2023-04-22T08:13:47;98237.94;;;19.73;47.90
33163;BME280;29282;45.656;11.302;2023-04-22T08:16:12;98246.53;;;19.71;47.96
33163;BME280;29282;45.656;11.302;2023-04-22T08:18:38;98238.50;;;19.66;48.01
33163;BME280;29282;45.656;11.302;2023-04-22T08:21:03;98241.00;;;19.59;47.98
33163;BME280;29282;45.656;11.302;2023-04-22T08:23:29;98235.63;;;19.51;48.25
33163;BME280;29282;45.656;11.302;2023-04-22T08:25:54;98246.03;;;19.45;48.30
33163;BME280;29282;45.656;11.302;2023-04-22T08:28:20;98240.75;;;19.40;48.52
33163;BME280;29282;45.656;11.302;2023-04-22T08:30:45;98238.69;;;19.37;48.45
33163;BME280;29282;45.656;11.302;2023-04-22T08:33:11;98233.56;;;19.35;48.55
33163;BME280;29282;45.656;11.302;2023-04-22T08:35:37;98232.28;;;19.33;48.66
33163;BME280;29282;45.656;11.302;2023-04-22T08:38:02;98239.25;;;19.30;48.62
33163;BME280;29282;45.656;11.302;2023-04-22T08:40:28;98236.88;;;19.29;48.65
33163;BME280;29282;45.656;11.302;2023-04-22T08:42:55;98234.47;;;19.27;48.66
33163;BME280;29282;45.656;11.302;2023-04-22T08:45:21;98241.88;;;19.27;48.55
33163;BME280;29282;45.656;11.302;2023-04-22T08:47:48;98240.75;;;19.28;48.56
33163;BME280;29282;45.656;11.302;2023-04-22T08:50:14;98226.91;;;19.24;48.63
33163;BME280;29282;45.656;11.302;2023-04-22T08:52:42;98232.41;;;19.24;48.64
33163;BME280;29282;45.656;11.302;2023-04-22T08:55:08;98233.88;;;19.21;48.73
33163;BME280;29282;45.656;11.302;2023-04-22T08:57:35;98227.59;;;19.21;48.47
33163;BME280;29282;45.656;11.302;2023-04-22T09:00:03;98232.28;;;19.20;48.59
33163;BME280;29282;45.656;11.302;2023-04-22T09:02:31;98227.13;;;19.19;48.74
33163;BME280;29282;45.656;11.302;2023-04-22T09:04:57;98227.91;;;19.19;48.58
33163;BME280;29282;45.656;11.302;2023-04-22T09:07:24;98238.09;;;19.19;48.63
33163;BME280;29282;45.656;11.302;2023-04-22T09:09:52;98232.97;;;19.17;48.67
33163;BME280;29282;45.656;11.302;2023-04-22T09:12:18;98227.78;;;19.16;48.57
33163;BME280;29282;45.656;11.302;2023-04-22T09:14:44;98235.25;;;19.15;48.70
33163;BME280;29282;45.656;11.302;2023-04-22T09:17:10;98217.59;;;19.16;48.57
33163;BME280;29282;45.656;11.302;2023-04-22T09:19:39;98225.06;;;19.16;48.50
33163;BME280;29282;45.656;11.302;2023-04-22T09:22:04;98225.84;;;19.16;48.54
33163;BME280;29282;45.656;11.302;2023-04-22T09:24:30;98221.03;;;19.13;48.54
33163;BME280;29282;45.656;11.302;2023-04-22T09:26:55;98221.38;;;19.12;48.56
33163;BME280;29282;45.656;11.302;2023-04-22T09:29:21;98214.31;;;19.11;48.61
33163;BME280;29282;45.656;11.302;2023-04-22T09:31:53;98210.41;;;19.12;48.45
33163;BME280;29282;45.656;11.302;2023-04-22T09:34:20;98205.72;;;19.12;48.54
33163;BME280;29282;45.656;11.302;2023-04-22T09:36:49;98211.56;;;19.11;48.61
33163;BME280;29282;45.656;11.302;2023-04-22T09:39:15;98202.50;;;19.10;48.59
33163;BME280;29282;45.656;11.302;2023-04-22T09:41:41;98204.00;;;19.08;48.66
33163;BME280;29282;45.656;11.302;2023-04-22T09:44:14;98207.06;;;19.06;48.56
33163;BME280;29282;45.656;11.302;2023-04-22T09:46:43;98207.41;;;19.05;48.49
33163;BME280;29282;45.656;11.302;2023-04-22T09:49:09;98203.88;;;19.04;48.60
33163;BME280;29282;45.656;11.302;2023-04-22T09:51:39;98204.69;;;19.05;48.68
33163;BME280;29282;45.656;11.302;2023-04-22T09:54:06;98205.00;;;19.03;48.60
33163;BME280;29282;45.656;11.302;2023-04-22T09:57:01;98200.66;;;19.02;48.66
33163;BME280;29282;45.656;11.302;2023-04-22T09:59:28;98200.66;;;19.02;48.69
33163;BME280;29282;45.656;11.302;2023-04-22T10:01:57;98204.56;;;19.01;48.67
33163;BME280;29282;45.656;11.302;2023-04-22T10:04:23;98205.69;;;19.00;48.45
33163;BME280;29282;45.656;11.302;2023-04-22T10:06:51;98203.28;;;18.98;48.61
33163;BME280;29282;45.656;11.302;2023-04-22T10:09:19;98209.03;;;19.06;49.10
33163;BME280;29282;45.656;11.302;2023-04-22T10:11:46;98206.38;;;19.09;49.14
33163;BME280;29282;45.656;11.302;2023-04-22T10:14:12;98209.13;;;19.09;49.27
33163;BME280;29282;45.656;11.302;2023-04-22T10:16:42;98200.56;;;19.11;49.17
33163;BME280;29282;45.656;11.302;2023-04-22T10:19:12;98210.41;;;19.12;49.34
33163;BME280;29282;45.656;11.302;2023-04-22T10:21:43;98208.47;;;19.12;49.31
33163;BME280;29282;45.656;11.302;2023-04-22T10:24:18;98213.16;;;19.12;49.31
33163;BME280;29282;45.656;11.302;2023-04-22T10:29:15;98201.38;;;19.11;49.41
33163;BME280;29282;45.656;11.302;2023-04-22T10:32:32;98206.50;;;19.13;49.62
33163;BME280;29282;45.656;11.302;2023-04-22T10:34:38;98195.09;;;19.11;49.59
33163;BME280;29282;45.656;11.302;2023-04-22T10:37:09;98200.56;;;19.11;49.41
33163;BME280;29282;45.656;11.302;2023-04-22T10:39:36;98192.66;;;19.09;49.50
33163;BME280;29282;45.656;11.302;2023-04-22T10:44:50;98193.47;;;19.10;49.69
33163;BME280;29282;45.656;11.302;2023-04-22T10:49:51;98183.63;;;19.09;49.55
33163;BME280;29282;45.656;11.302;2023-04-22T10:52:29;98188.31;;;19.08;49.59
33163;BME280;29282;45.656;11.302;2023-04-22T10:54:55;98181.19;;;19.07;49.76
33163;BME280;29282;45.656;11.302;2023-04-22T10:57:21;98176.88;;;19.06;49.79
33163;BME280;29282;45.656;11.302;2023-04-22T10:59:51;98186.69;;;19.07;49.81
33163;BME280;29282;45.656;11.302;2023-04-22T11:02:18;98177.66;;;19.07;49.84
33163;BME280;29282;45.656;11.302;2023-04-22T11:04:44;98182.34;;;19.06;49.74
33163;BME280;29282;45.656;11.302;2023-04-22T11:15:07;98165.56;;;19.08;49.53
33163;BME280;29282;45.656;11.302;2023-04-22T11:17:34;98163.59;;;19.08;49.62
33163;BME280;29282;45.656;11.302;2023-04-22T11:20:00;98167.47;;;19.07;49.53
33163;BME280;29282;45.656;11.302;2023-04-22T11:22:25;98161.19;;;19.07;49.76
33163;BME280;29282;45.656;11.302;2023-04-22T11:27:20;98158.78;;;19.05;49.64
33163;BME280;29282;45.656;11.302;2023-04-22T11:30:06;98154.44;;;19.04;49.86
33163;BME280;29282;45.656;11.302;2023-04-22T11:32:36;98152.84;;;19.03;49.72
33163;BME280;29282;45.656;11.302;2023-04-22T11:35:04;98147.34;;;19.03;49.76
33163;BME280;29282;45.656;11.302;2023-04-22T11:37:30;98158.31;;;19.03;49.77
33163;BME280;29282;45.656;11.302;2023-04-22T11:39:59;98150.09;;;19.03;49.83
33163;BME280;29282;45.656;11.302;2023-04-22T11:42:26;98157.19;;;19.04;49.74
33163;BME280;29282;45.656;11.302;2023-04-22T11:44:51;98150.88;;;19.04;49.93
33163;BME280;29282;45.656;11.302;2023-04-22T11:47:16;98143.13;;;19.06;50.16
33163;BME280;29282;45.656;11.302;2023-04-22T11:50:00;98140.72;;;19.04;50.06
33163;BME280;29282;45.656;11.302;2023-04-22T11:52:49;98139.91;;;19.04;50.22
33163;BME280;29282;45.656;11.302;2023-04-22T11:55:25;98140.72;;;19.04;50.14
33163;BME280;29282;45.656;11.302;2023-04-22T12:00:41;98141.06;;;19.02;50.00
33163;BME280;29282;45.656;11.302;2023-04-22T12:03:12;98139.09;;;19.03;50.18
33163;BME280;29282;45.656;11.302;2023-04-22T12:08:10;98126.53;;;19.02;50.23
33163;BME280;29282;45.656;11.302;2023-04-22T12:10:50;98129.28;;;19.02;50.23
33163;BME280;29282;45.656;11.302;2023-04-22T12:13:27;98127.69;;;19.01;50.26
33163;BME280;29282;45.656;11.302;2023-04-22T12:16:03;98126.06;;;19.00;50.41
33163;BME280;29282;45.656;11.302;2023-04-22T12:19:03;98129.59;;;19.00;50.36
33163;BME280;29282;45.656;11.302;2023-04-22T12:21:23;98130.44;;;19.01;50.21
33163;BME280;29282;45.656;11.302;2023-04-22T12:26:17;98126.06;;;19.00;50.33
33163;BME280;29282;45.656;11.302;2023-04-22T12:28:44;98124.94;;;19.01;50.28
33163;BME280;29282;45.656;11.302;2023-04-22T12:31:10;98124.94;;;19.01;50.28
33163;BME280;29282;45.656;11.302;2023-04-22T12:33:37;98121.72;;;18.99;50.37
33163;BME280;29282;45.656;11.302;2023-04-22T12:36:04;98115.88;;;19.00;50.27
33163;BME280;29282;45.656;11.302;2023-04-22T12:38:30;98118.63;;;19.00;50.33
33163;BME280;29282;45.656;11.302;2023-04-22T12:40:56;98107.63;;;19.00;50.27
33163;BME280;29282;45.656;11.302;2023-04-22T12:43:22;98113.13;;;19.00;50.35
33163;BME280;29282;45.656;11.302;2023-04-22T12:45:47;98109.59;;;19.00;50.30
33163;BME280;29282;45.656;11.302;2023-04-22T12:48:13;98106.84;;;19.00;50.42
33163;BME280;29282;45.656;11.302;2023-04-22T12:50:39;98107.63;;;19.00;50.41
33163;BME280;29282;45.656;11.302;2023-04-22T12:53:05;98101.34;;;19.00;50.41
33163;BME280;29282;45.656;11.302;2023-04-22T12:55:31;98104.44;;;18.98;50.45
33163;BME280;29282;45.656;11.302;2023-04-22T12:57:56;98106.84;;;19.00;50.40
33163;BME280;29282;45.656;11.302;2023-04-22T13:00:22;98102.50;;;18.99;50.52
33163;BME280;29282;45.656;11.302;2023-04-22T13:02:49;98102.84;;;18.97;50.46
33163;BME280;29282;45.656;11.302;2023-04-22T13:05:15;98103.97;;;18.96;50.61
33163;BME280;29282;45.656;11.302;2023-04-22T13:07:41;98099.63;;;18.95;50.61
33163;BME280;29282;45.656;11.302;2023-04-22T13:10:09;98094.16;;;18.95;50.59
33163;BME280;29282;45.656;11.302;2023-04-22T13:12:38;98096.09;;;18.95;50.80